• Join FlightAware (Why Join?)
  • Login
  • US Flag 
12:40PM EDT


 

Airport Tracker/Info


-or-


 

Live Flight TrackerFlight Track Log ✈ EJA922 ✈ 20-Jul-2013 ✈ TJSJ / SJU - KBWI

Flight Track Log - Related Links

Times and Time Zones

All times are in EDT time to prevent confusion due to time zone crossing. See the EJA922 flight status page for this flight to view local times or setup timezone preferences in your user account.

Time Position Orientation Groundspeed Altitude Reporting Facility
EDT Latitude Longitude Course Direction KTS MPH feet Rate Location/Type
08:32PM 18.4333 -65.9667 342° North 180 207 1,300  Level San Juan Center
08:33PM 18.4833 -65.9833 342° North 240 276 4,600 3,420 Climbing San Juan Center
08:34PM 18.5333 -66.0333 317° Northwest 290 334 8,300 2,700 Climbing San Juan Center
08:35PM 18.6000 -66.1000 317° Northwest 310 357 10,000 1,140 Climbing San Juan Center
08:36PM 18.6667 -66.1833 310° West 380 437 10,700 1,620 Climbing San Juan Center
08:37PM 18.7500 -66.2667 317° Northwest 380 437 13,300 2,220 Climbing San Juan Center
08:38PM 18.8167 -66.3500 310° West 400 460 15,200 1,740 Climbing San Juan Center
08:39PM 18.9000 -66.4500 311° West 400 460 16,900 1,380 Climbing San Juan Center
08:40PM 18.9667 -66.5167 317° Northwest 410 472 18,100 1,200 Climbing San Juan Center
08:41PM 19.0500 -66.6167 311° West 410 472 19,400 1,200 Climbing San Juan Center
08:42PM 19.1667 -66.6667 338° Northwest 420 483 20,600 1,140 Climbing San Juan Center
08:43PM 19.2833 -66.7000 345° North 440 506 21,800 1,080 Climbing San Juan Center
08:44PM 19.4000 -66.7500 338° Northwest 440 506 22,800 960 Climbing San Juan Center
08:45PM 19.4833 -66.8333 317° Northwest 450 518 23,800 1,020 Climbing San Juan Center
08:47PM 19.6667 -67.0167 317° Northwest 450 518 25,900 960 Climbing San Juan Center
08:48PM 19.7667 -67.1000 322° Northwest 450 518 26,700 840 Climbing San Juan Center
08:49PM 19.8667 -67.2000 317° Northwest 460 529 27,700 1,500 Climbing San Juan Center
08:50PM 19.9667 -67.2833 322° Northwest 460 529 29,700 1,560 Climbing San Juan Center
08:51PM 20.0500 -67.3667 317° Northwest 450 518 30,900 1,200 Climbing San Juan Center
08:52PM 20.1500 -67.4667 317° Northwest 460 529 32,100 1,140 Climbing San Juan Center
08:53PM 20.2500 -67.5500 322° Northwest 450 518 33,300 1,140 Climbing San Juan Center
08:54PM 20.3333 -67.6500 312° West 460 529 34,400 1,200 Climbing San Juan Center
08:55PM 20.5131 -67.8108 320° Northwest 554 638 36,600 1,320 Climbing Miami Center
08:56PM 20.6036 -67.9042 316° Northwest 481 554 38,100 1,500 Climbing Miami Center
08:57PM 20.7067 -67.9947 321° Northwest 476 548 39,700 1,440 Climbing Miami Center
08:58PM 20.8258 -68.0403 340° North 460 529 41,000 1,140 Climbing Miami Center
08:59PM 20.9525 -68.0719 347° North 460 529 42,000 840 Climbing Miami Center
09:00PM 21.0833 -68.1011 348° North 472 543 42,700 480 Climbing Miami Center
09:01PM 21.2103 -68.1372 345° North 478 550 43,000 120 Climbing Miami Center
09:02PM 21.3517 -68.1703 348° North 484 557 43,000  Level Miami Center
09:03PM 21.4928 -68.2011 349° North 501 577 43,000  Level Miami Center
09:04PM 21.6344 -68.2389 346° North 507 583 43,000  Level Miami Center
09:05PM 21.7697 -68.2725 347° North 512 589 43,000  Level Miami Center
09:06PM 21.9153 -68.3078 347° North 518 596 43,000  Level Miami Center
09:07PM 22.0569 -68.3456 346° North 518 596 43,000  Level Miami Center
09:08PM 22.2006 -68.3786 348° North 518 596 43,000  Level Miami Center
09:09PM 22.3381 -68.4144 346° North 518 596 43,000  Level Miami Center
09:10PM 22.4817 -68.4500 347° North 523 602 43,000  Level Miami Center
09:11PM 22.6275 -68.4900 346° North 523 602 43,000  Level Miami Center
09:12PM 22.7711 -68.5236 348° North 523 602 43,000  Level Miami Center
09:13PM 22.9106 -68.5594 347° North 523 602 43,000  Level Miami Center
09:14PM 23.0608 -68.6017 346° North 531 611 43,000  Level Miami Center
09:15PM 23.2003 -68.6333 348° North 525 604 43,000  Level Miami Center
09:16PM 23.3442 -68.6714 346° North 525 604 43,000  Level Miami Center
09:17PM 23.4839 -68.7100 346° North 525 604 43,000  Level Miami Center
09:18PM 23.6208 -68.7372 350° North 509 586 43,000  Level Miami Center
09:19PM 23.7669 -68.7822 344° North 520 598 43,000  Level Miami Center
09:20PM 23.9064 -68.8164 347° North 514 592 43,000  Level Miami Center
09:21PM 24.0481 -68.8528 347° North 520 598 43,000  Level Miami Center
09:22PM 24.1900 -68.8914 346° North 520 598 43,000  Level Miami Center
09:23PM 24.3292 -68.9233 348° North 520 598 43,000  Level Miami Center
09:24PM 24.4711 -68.9622 346° North 520 598 43,000  Level Miami Center
09:25PM 24.6108 -69.0011 346° North 520 598 43,000  Level Miami Center
09:26PM 24.7547 -69.0400 346° North 520 598 43,000  Level Miami Center
09:27PM 24.8894 -69.0656 350° North 515 593 43,000  Level Miami Center
09:28PM 25.0292 -69.1047 346° North 515 593 43,000  Level Miami Center
09:29PM 25.0000 -69.1000 349° North 572 658 43,000  Level New York Oceanic (ODAPS)
09:36PM 26.2008 -69.3496 349° North 572 658 43,000  Level FlightAware Transoceanic
09:37PM 26.3509 -69.3811 349° North 572 658 43,000  Level FlightAware Transoceanic
09:38PM 26.5010 -69.4128 349° North 572 658 43,000  Level FlightAware Transoceanic
09:39PM 26.6510 -69.4445 349° North 572 658 43,000  Level FlightAware Transoceanic
09:40PM 26.8011 -69.4763 349° North 572 658 43,000  Level FlightAware Transoceanic
09:41PM 26.9511 -69.5082 349° North 572 658 43,000  Level FlightAware Transoceanic
09:41PM 26.7167 -69.4500 349° North 472 543 43,000  Level New York Oceanic (ODAPS)
09:42PM 27.1012 -69.5401 349° North 572 658 43,000  Level FlightAware Transoceanic
09:43PM 27.2512 -69.5722 349° North 572 658 43,000  Level FlightAware Transoceanic
09:44PM 27.4012 -69.6043 349° North 572 658 43,000  Level FlightAware Transoceanic
09:45PM 27.5512 -69.6366 349° North 572 658 43,000  Level FlightAware Transoceanic
09:46PM 27.7012 -69.6689 349° North 572 658 43,000  Level FlightAware Transoceanic
09:47PM 27.8512 -69.7013 349° North 572 658 43,000  Level FlightAware Transoceanic
09:48PM 27.8505 -69.6953 349° North 472 543 43,000  Level FlightAware Transoceanic
09:49PM 27.9922 -69.7263 349° North 472 543 43,000  Level FlightAware Transoceanic
09:50PM 28.1339 -69.7574 349° North 472 543 43,000  Level FlightAware Transoceanic
09:51PM 28.2756 -69.7886 349° North 472 543 43,000  Level FlightAware Transoceanic
09:52PM 28.4173 -69.8198 349° North 472 543 43,000  Level FlightAware Transoceanic
09:53PM 28.5589 -69.8512 349° North 472 543 43,000  Level FlightAware Transoceanic
09:54PM 28.7006 -69.8826 349° North 472 543 43,000  Level FlightAware Transoceanic
09:55PM 28.8423 -69.9141 349° North 472 543 43,000  Level FlightAware Transoceanic
09:56PM 28.9839 -69.9457 349° North 472 543 43,000  Level FlightAware Transoceanic
09:57PM 29.1256 -69.9774 349° North 472 543 43,000  Level FlightAware Transoceanic
09:58PM 29.2672 -70.0092 349° North 472 543 43,000  Level FlightAware Transoceanic
09:59PM 29.4088 -70.0411 349° North 472 543 43,000  Level FlightAware Transoceanic
10:00PM 29.5504 -70.0730 349° North 472 543 43,000  Level FlightAware Transoceanic
10:01PM 29.6921 -70.1051 349° North 472 543 43,000  Level FlightAware Transoceanic
10:02PM 29.8337 -70.1372 349° North 472 543 43,000  Level FlightAware Transoceanic
10:03PM 29.9753 -70.1694 349° North 472 543 43,000  Level FlightAware Transoceanic
10:04PM 30.1168 -70.2018 349° North 472 543 43,000  Level FlightAware Transoceanic
10:05PM 30.2584 -70.2342 349° North 472 543 43,000  Level FlightAware Transoceanic
10:06PM 30.4000 -70.2667 349° North 472 543 43,000  Level FlightAware Transoceanic
10:07PM 30.5410 -70.2988 349° North 472 543 43,000  Level FlightAware Transoceanic
10:08PM 30.6821 -70.3310 349° North 472 543 43,000  Level FlightAware Transoceanic
10:09PM 30.8231 -70.3633 349° North 472 543 43,000  Level FlightAware Transoceanic
10:09PM 30.4000 -70.2667 349° North 549 632 43,000  Level New York Oceanic (ODAPS)
10:10PM 30.9641 -70.3957 349° North 472 543 43,000  Level FlightAware Transoceanic
10:11PM 31.1051 -70.4282 349° North 472 543 43,000  Level FlightAware Transoceanic
10:12PM 31.2461 -70.4608 349° North 472 543 43,000  Level FlightAware Transoceanic
10:13PM 31.3871 -70.4935 349° North 472 543 43,000  Level FlightAware Transoceanic
10:14PM 31.5280 -70.5263 349° North 472 543 43,000  Level FlightAware Transoceanic
10:15PM 31.5515 -70.5318 349° North 549 632 43,000  Level FlightAware Transoceanic
10:16PM 31.6954 -70.5654 349° North 549 632 43,000  Level FlightAware Transoceanic
10:17PM 31.8393 -70.5991 349° North 549 632 43,000  Level FlightAware Transoceanic
10:18PM 31.9832 -70.6329 349° North 549 632 43,000  Level FlightAware Transoceanic
10:19PM 32.1271 -70.6668 349° North 549 632 43,000  Level FlightAware Transoceanic
10:20PM 32.2710 -70.7008 349° North 549 632 43,000  Level FlightAware Transoceanic
10:21PM 32.4148 -70.7349 349° North 549 632 43,000  Level FlightAware Transoceanic
10:22PM 32.5587 -70.7691 349° North 549 632 43,000  Level FlightAware Transoceanic
10:23PM 32.7025 -70.8035 349° North 549 632 43,000  Level FlightAware Transoceanic
10:24PM 32.8464 -70.8379 349° North 549 632 43,000  Level FlightAware Transoceanic
10:25PM 32.9902 -70.8725 349° North 549 632 43,000  Level FlightAware Transoceanic
10:26PM 33.1340 -70.9072 349° North 549 632 43,000  Level FlightAware Transoceanic
10:27PM 33.2778 -70.9420 349° North 549 632 43,000  Level FlightAware Transoceanic
10:28PM 33.4216 -70.9769 349° North 549 632 43,000  Level FlightAware Transoceanic
10:29PM 33.5654 -71.0119 349° North 549 632 43,000  Level FlightAware Transoceanic
10:30PM 33.7091 -71.0470 348° North 549 632 43,000  Level FlightAware Transoceanic
10:31PM 33.8529 -71.0823 348° North 549 632 43,000  Level FlightAware Transoceanic
10:32PM 33.9967 -71.1177 348° North 549 632 43,000  Level FlightAware Transoceanic
10:33PM 34.1404 -71.1532 348° North 549 632 43,000  Level FlightAware Transoceanic
10:34PM 34.2841 -71.1888 348° North 549 632 43,000  Level FlightAware Transoceanic
10:35PM 34.4279 -71.2245 348° North 549 632 43,000  Level FlightAware Transoceanic
10:35PM 33.6833 -71.0333 348° North 600 690 43,000  Level New York Oceanic (ODAPS)
10:36PM 34.5716 -71.2604 348° North 549 632 43,000  Level FlightAware Transoceanic
10:37PM 34.7153 -71.2964 348° North 549 632 43,000  Level FlightAware Transoceanic
10:38PM 34.8590 -71.3325 348° North 549 632 43,000  Level FlightAware Transoceanic
10:39PM 35.0027 -71.3687 348° North 549 632 43,000  Level FlightAware Transoceanic
10:40PM 35.1463 -71.4051 348° North 549 632 43,000  Level FlightAware Transoceanic
10:41PM 35.1309 -71.3967 348° North 600 690 43,000  Level FlightAware Transoceanic
10:42PM 35.2756 -71.4337 348° North 600 690 43,000  Level FlightAware Transoceanic
10:43PM 35.4202 -71.4709 348° North 600 690 43,000  Level FlightAware Transoceanic
10:44PM 35.5649 -71.5082 348° North 600 690 43,000  Level FlightAware Transoceanic
10:45PM 35.7096 -71.5456 348° North 600 690 43,000  Level FlightAware Transoceanic
10:46PM 35.8542 -71.5832 348° North 600 690 43,000  Level FlightAware Transoceanic
10:47PM 35.9988 -71.6209 348° North 600 690 43,000  Level FlightAware Transoceanic
10:47PM 35.6333 -71.5333 348° North 510 587 43,000  Level New York Oceanic (ODAPS)
10:48PM 36.1435 -71.6587 348° North 600 690 43,000  Level FlightAware Transoceanic
10:49PM 36.2881 -71.6967 348° North 600 690 43,000  Level FlightAware Transoceanic
10:50PM 36.4327 -71.7348 348° North 600 690 43,000  Level FlightAware Transoceanic
10:51PM 36.5773 -71.7731 348° North 600 690 43,000  Level FlightAware Transoceanic
10:52PM 36.7218 -71.8115 348° North 600 690 43,000  Level FlightAware Transoceanic
10:53PM 36.7446 -71.8201 348° North 510 587 43,000  Level FlightAware Transoceanic
10:54PM 36.8835 -71.8566 348° North 510 587 43,000  Level FlightAware Transoceanic
10:54PM 36.8417 -71.8408 358° North 528 608 43,000  Level New York Center
10:55PM 37.0223 -71.8931 348° North 510 587 43,000  Level FlightAware Transoceanic
10:55PM 36.9747 -71.8767 348° North 502 578 43,000  Level New York Center
10:56PM 37.1612 -71.9298 348° North 510 587 43,000  Level FlightAware Transoceanic
10:56PM 37.1036 -71.9150 347° North 489 563 43,000  Level New York Center
10:57PM 37.3000 -71.9667 358° North 510 587 43,000  Level FlightAware Transoceanic
10:57PM 37.2236 -72.0211 325° Northwest 475 547 43,000  Level New York Center
10:58PM 37.4222 -71.9722 358° North 510 587 43,000  Level FlightAware Transoceanic
10:59PM 37.4147 -72.2625 315° West 487 560 43,000  Level New York Center
11:00PM 37.5006 -72.3822 312° West 479 551 43,000  Level New York Center
11:01PM 37.5992 -72.5050 315° West 487 560 43,000  Level New York Center
11:02PM 37.6867 -72.6331 311° West 487 560 43,000  Level New York Center
11:03PM 37.7872 -72.7433 319° Northwest 475 547 43,000 -540 Level New York Center
11:04PM 37.8725 -72.8719 310° West 470 541 42,000 -1,860 Descending New York Center
11:05PM 37.9706 -72.9853 318° Northwest 470 541 39,400 -2,400 Descending New York Center
11:07PM 38.1300 -73.1950 314° West 465 535 35,000 -2,400 Descending Washington Center
11:08PM 38.2200 -73.3161 313° West 465 535 32,500 -2,640 Descending Washington Center
11:09PM 38.3081 -73.4483 310° West 481 554 29,900 -2,580 Descending Washington Center
11:10PM 38.3422 -73.6222 284° West 481 554 27,400 -2,340 Descending Washington Center
11:11PM 38.3719 -73.7883 283° West 491 565 25,200 -2,160 Descending Washington Center
11:12PM 38.3994 -73.9519 282° West 484 557 23,200 -1,620 Descending Washington Center
11:13PM 38.4286 -74.1075 284° West 478 550 22,000 -600 Descending Washington Center
11:14PM 38.4533 -74.2608 282° West 466 536 22,000  Level Washington Center
11:15PM 38.4800 -74.4142 283° West 450 518 22,000  Level Washington Center
11:16PM 38.5064 -74.5675 282° West 443 510 22,000  Level Washington Center
11:17PM 38.5306 -74.7158 282° West 443 510 22,000  Level Washington Center
11:18PM 38.5608 -74.8669 284° West 443 510 22,000  Level Washington Center
11:19PM 38.5844 -75.0181 281° West 443 510 22,000  Level Washington Center
11:20PM 38.6103 -75.1667 283° West 443 510 22,000  Level Washington Center
11:21PM 38.6356 -75.3233 282° West 443 510 22,000 -960 Level Washington Center
11:22PM 38.6589 -75.4747 281° West 448 516 20,100 -2,040 Descending Washington Center
11:23PM 38.6839 -75.6208 282° West 443 510 17,900 -2,160 Descending Washington Center
11:24PM 38.7067 -75.7619 282° West 426 490 15,800 -2,040 Descending Washington Center
11:25PM 38.7253 -75.8792 282° West 385 443 13,900 -1,800 Descending Washington Center
11:26PM 38.7439 -75.9883 282° West 342 394 12,300 -1,500 Descending Washington Center
11:27PM 38.7644 -76.0761 287° West 298 343 11,000 -1,320 Descending Washington Center
11:28PM 38.8244 -76.1433 319° Northwest 272 313 9,700 -1,560 Descending Washington Center
11:29PM 38.8908 -76.2158 320° Northwest 272 313 7,900 -1,800 Descending Washington Center
11:30PM 38.9531 -76.2750 324° Northwest 277 319 6,100 -1,560 Descending Washington Center
11:31PM 39.0133 -76.3317 324° Northwest 277 319 4,800 -1,080 Descending Washington Center
11:32PM 39.0608 -76.3803 322° Northwest 260 299 4,000 -1,020 Descending Washington Center
11:33PM 39.1000 -76.4167 324° Northwest 216 249 3,100 -1,200 Descending Potomac TRACON
11:34PM 39.1500 -76.4667 322° Northwest 205 236 2,000 -600 Descending Potomac TRACON
11:35PM 39.1667 -76.5000 303° West 157 181 2,000 -180 Level Potomac TRACON
11:35PM 39.1667 -76.5667 270° West 151 174 1,700 -600 Descending Potomac TRACON
11:36PM 39.1667 -76.6167 270° West 143 165 900 -840 Descending Potomac TRACON
11:38PM 39.1667 -76.6667 308° West  Level FlightAware Approximate
11:45PM 39.1754 -76.6683 308° West  Level Estimated
11:46PM 39.1754 -76.6683 308° West  Level Estimated
11:47PM 39.1754 -76.6683 308° West  Level Estimated
11:48PM 39.1754 -76.6683 308° West  Level Estimated
11:49PM 39.1754 -76.6683 308° West  Level Estimated
11:50PM 39.1754 -76.6683 308° West  Level Estimated